Time,TemperatureF,DewpointF,PressureIn,WindDirection,WindDirectionDegrees,WindSpeedMPH,WindSpeedGustMPH,Humidity,HourlyPrecipIn,Conditions,Clouds,dailyrainin,SoftwareType,DateUTC
2013-05-22 00:02:00,66.0,-99.9,29.67,West,268,0.0,0.0,-999,-99.99,,,-99.99,,2013-05-22 05:02:00,
2013-05-22 00:12:00,67.0,-99.9,29.66,WSW,243,0.0,3.0,-999,-99.99,,,-99.99,,2013-05-22 05:12:00,
2013-05-22 00:22:00,67.0,-99.9,29.66,WSW,243,0.0,3.0,-999,-99.99,,,-99.99,,2013-05-22 05:22:00,
2013-05-22 00:32:00,68.0,-99.9,29.66,SW,225,1.0,2.0,-999,-99.99,,,-99.99,,2013-05-22 05:32:00,
2013-05-22 00:42:00,68.0,-99.9,29.66,South,171,1.0,4.0,-999,-99.99,,,-99.99,,2013-05-22 05:42:00,
2013-05-22 00:52:00,68.0,-99.9,29.66,South,171,1.0,4.0,-999,-99.99,,,-99.99,,2013-05-22 05:52:00,
2013-05-22 01:01:00,68.0,-99.9,29.66,South,173,0.0,4.0,-999,-99.99,,,-99.99,,2013-05-22 06:01:00,
2013-05-22 01:12:00,68.0,-99.9,29.66,SSE,165,1.0,6.0,-999,-99.99,,,-99.99,,2013-05-22 06:12:00,
2013-05-22 01:21:00,68.0,-99.9,29.66,SSE,165,1.0,6.0,-999,-99.99,,,-99.99,,2013-05-22 06:21:00,
2013-05-22 01:32:00,68.0,-99.9,29.66,SSE,161,1.0,6.0,-999,-99.99,,,-99.99,,2013-05-22 06:32:00,
2013-05-22 01:42:00,69.0,-99.9,29.66,SSE,161,1.0,6.0,-999,-99.99,,,-99.99,,2013-05-22 06:42:00,
2013-05-22 01:52:00,69.0,-99.9,29.66,SSE,161,1.0,6.0,-999,-99.99,,,-99.99,,2013-05-22 06:52:00,
2013-05-22 02:01:00,68.0,-99.9,29.65,South,177,0.0,4.0,-999,-99.99,,,-99.99,,2013-05-22 07:01:00,
2013-05-22 02:11:00,68.0,-99.9,29.65,South,177,0.0,4.0,-999,-99.99,,,-99.99,,2013-05-22 07:11:00,
2013-05-22 02:21:00,68.0,-99.9,29.64,SSE,156,2.0,4.0,-999,-99.99,,,-99.99,,2013-05-22 07:21:00,
2013-05-22 02:32:00,68.0,-99.9,29.64,SSE,156,1.0,4.0,-999,-99.99,,,-99.99,,2013-05-22 07:32:00,
2013-05-22 02:42:00,68.0,-99.9,29.64,SSE,156,1.0,4.0,-999,-99.99,,,-99.99,,2013-05-22 07:42:00,
2013-05-22 02:53:00,68.0,-99.9,29.65,SSE,161,2.0,5.0,-999,-99.99,,,-99.99,,2013-05-22 07:53:00,
2013-05-22 03:02:00,67.0,-99.9,29.65,SSE,163,3.0,6.0,-999,-99.99,,,-99.99,,2013-05-22 08:02:00,
2013-05-22 03:11:00,67.0,-99.9,29.65,SSE,152,2.0,7.0,-999,-99.99,,,-99.99,,2013-05-22 08:11:00,
2013-05-22 03:22:00,67.0,-99.9,29.65,SSE,152,2.0,7.0,-999,-99.99,,,-99.99,,2013-05-22 08:22:00,
2013-05-22 03:32:00,66.0,-99.9,29.65,SSE,164,1.0,4.0,-999,-99.99,,,-99.99,,2013-05-22 08:32:00,
2013-05-22 03:42:00,66.0,-99.9,29.65,SSE,164,0.0,1.0,-999,-99.99,,,-99.99,,2013-05-22 08:42:00,
2013-05-22 03:52:00,66.0,-99.9,29.65,SSE,164,0.0,1.0,-999,-99.99,,,-99.99,,2013-05-22 08:52:00,
2013-05-22 04:01:00,66.0,-99.9,29.64,SSE,164,0.0,1.0,-999,-99.99,,,-99.99,,2013-05-22 09:01:00,
2013-05-22 04:12:00,66.0,-99.9,29.64,SSE,164,1.0,2.0,-999,-99.99,,,-99.99,,2013-05-22 09:12:00,
2013-05-22 04:22:00,66.0,-99.9,29.64,SSE,164,1.0,2.0,-999,-99.99,,,-99.99,,2013-05-22 09:22:00,
2013-05-22 04:33:00,66.0,-99.9,29.64,SSE,163,0.0,3.0,-999,-99.99,,,-99.99,,2013-05-22 09:33:00,
2013-05-22 04:43:00,66.0,-99.9,29.64,SSE,164,0.0,2.0,-999,-99.99,,,-99.99,,2013-05-22 09:43:00,
2013-05-22 04:53:00,66.0,-99.9,29.64,SSE,164,0.0,2.0,-999,-99.99,,,-99.99,,2013-05-22 09:53:00,
2013-05-22 05:03:00,65.0,-99.9,29.64,SSE,164,0.0,3.0,-999,-99.99,,,-99.99,,2013-05-22 10:03:00,
2013-05-22 05:12:00,66.0,-99.9,29.63,SSE,164,1.0,3.0,-999,-99.99,,,-99.99,,2013-05-22 10:12:00,
2013-05-22 05:23:00,66.0,-99.9,29.63,SSE,164,1.0,3.0,-999,-99.99,,,-99.99,,2013-05-22 10:23:00,
2013-05-22 05:33:00,65.0,-99.9,29.63,South,170,1.0,4.0,-999,-99.99,,,-99.99,,2013-05-22 10:33:00,
2013-05-22 05:42:00,65.0,-99.9,29.64,South,189,0.0,3.0,-999,-99.99,,,-99.99,,2013-05-22 10:42:00,
2013-05-22 05:53:00,65.0,-99.9,29.64,South,189,0.0,3.0,-999,-99.99,,,-99.99,,2013-05-22 10:53:00,
2013-05-22 06:02:00,65.0,-99.9,29.64,SSW,200,0.0,7.0,-999,-99.99,,,-99.99,,2013-05-22 11:02:00,
2013-05-22 06:12:00,66.0,-99.9,29.63,South,173,0.0,3.0,-999,-99.99,,,-99.99,,2013-05-22 11:12:00,
2013-05-22 06:22:00,66.0,-99.9,29.63,South,173,0.0,3.0,-999,-99.99,,,-99.99,,2013-05-22 11:22:00,
2013-05-22 06:32:00,66.0,-99.9,29.63,South,173,1.0,4.0,-999,-99.99,,,-99.99,,2013-05-22 11:32:00,
2013-05-22 06:42:00,65.0,-99.9,29.63,SSE,164,0.0,-999.0,-999,-99.99,,,-99.99,,2013-05-22 11:42:00,
2013-05-22 06:53:00,65.0,-99.9,29.63,SSE,164,0.0,-999.0,-999,-99.99,,,-99.99,,2013-05-22 11:53:00,
2013-05-22 07:02:00,65.0,-99.9,29.63,SSE,152,1.0,-999.0,-999,-99.99,,,-99.99,,2013-05-22 12:02:00,
2013-05-22 07:12:00,65.0,-99.9,29.63,SSE,165,0.0,-999.0,-999,-99.99,,,-99.99,,2013-05-22 12:12:00,
2013-05-22 07:22:00,65.0,-99.9,29.63,SSE,165,0.0,-999.0,-999,-99.99,,,-99.99,,2013-05-22 12:22:00,
2013-05-22 07:32:00,64.0,-99.9,29.63,SSE,158,2.0,-999.0,-999,-99.99,,,-99.99,,2013-05-22 12:32:00,
2013-05-22 07:42:00,64.0,-99.9,29.63,SSE,156,4.0,-999.0,-999,-99.99,,,-99.99,,2013-05-22 12:42:00,
2013-05-22 07:52:00,64.0,-99.9,29.63,SSE,156,4.0,-999.0,-999,-99.99,,,-99.99,,2013-05-22 12:52:00,
2013-05-22 08:02:00,64.0,-99.9,29.62,SSE,162,0.0,-999.0,-999,-99.99,,,-99.99,,2013-05-22 13:02:00,
2013-05-22 08:12:00,64.0,-99.9,29.62,SSE,165,0.0,-999.0,-999,-99.99,,,-99.99,,2013-05-22 13:12:00,
2013-05-22 08:22:00,64.0,-99.9,29.62,SSE,165,0.0,-999.0,-999,-99.99,,,-99.99,,2013-05-22 13:22:00,
2013-05-22 08:32:00,64.0,-99.9,29.62,SSE,164,0.0,-999.0,-999,-99.99,,,-99.99,,2013-05-22 13:32:00,
2013-05-22 08:42:00,64.0,-99.9,29.62,SSE,164,0.0,-999.0,-999,-99.99,,,-99.99,,2013-05-22 13:42:00,
2013-05-22 08:52:00,64.0,-99.9,29.62,SSE,164,0.0,-999.0,-999,-99.99,,,-99.99,,2013-05-22 13:52:00,
2013-05-22 09:02:00,64.0,-99.9,29.62,SSE,151,0.0,-999.0,-999,-99.99,,,-99.99,,2013-05-22 14:02:00,
2013-05-22 09:11:00,65.0,-99.9,29.61,SSE,157,1.0,-999.0,-999,-99.99,,,-99.99,,2013-05-22 14:11:00,
2013-05-22 09:22:00,65.0,-99.9,29.61,SSE,157,1.0,-999.0,-999,-99.99,,,-99.99,,2013-05-22 14:22:00,
2013-05-22 09:32:00,65.0,-99.9,29.61,SSE,156,1.0,-999.0,-999,-99.99,,,-99.99,,2013-05-22 14:32:00,
2013-05-22 09:42:00,65.0,-99.9,29.61,SSE,165,1.0,-999.0,-999,-99.99,,,-99.99,,2013-05-22 14:42:00,
2013-05-22 09:53:00,65.0,-99.9,29.61,SSE,165,1.0,-999.0,-999,-99.99,,,-99.99,,2013-05-22 14:53:00,
2013-05-22 10:02:00,65.0,-99.9,29.62,SSE,158,0.0,-999.0,-999,-99.99,,,-99.99,,2013-05-22 15:02:00,
2013-05-22 10:11:00,68.0,-99.9,29.63,South,170,2.0,-999.0,-999,-99.99,,,-99.99,,2013-05-22 15:11:00,
2013-05-22 10:22:00,68.0,-99.9,29.63,South,170,2.0,-999.0,-999,-99.99,,,-99.99,,2013-05-22 15:22:00,
2013-05-22 10:33:00,67.0,-99.9,29.63,WSW,241,0.0,-999.0,-999,-99.99,,,-99.99,,2013-05-22 15:33:00,
2013-05-22 10:43:00,67.0,-99.9,29.63,WSW,241,0.0,-999.0,-999,-99.99,,,-99.99,,2013-05-22 15:43:00,
2013-05-22 10:53:00,67.0,-99.9,29.63,South,170,4.0,-999.0,-999,-99.99,,,-99.99,,2013-05-22 15:53:00,
2013-05-22 11:03:00,68.0,-99.9,29.63,SSE,148,6.0,-999.0,-999,-99.99,,,-99.99,,2013-05-22 16:03:00,
2013-05-22 11:13:00,70.0,-99.9,29.62,SSE,150,7.0,-999.0,-999,-99.99,,,-99.99,,2013-05-22 16:13:00,
2013-05-22 11:23:00,70.0,-99.9,29.62,SSE,150,7.0,-999.0,-999,-99.99,,,-99.99,,2013-05-22 16:23:00,
2013-05-22 11:33:00,69.0,-99.9,29.63,South,174,5.0,-999.0,-999,-99.99,,,-99.99,,2013-05-22 16:33:00,
2013-05-22 11:42:00,71.0,-99.9,29.62,SW,216,0.0,-999.0,-999,-99.99,,,-99.99,,2013-05-22 16:42:00,
2013-05-22 11:53:00,71.0,-99.9,29.62,SW,216,0.0,-999.0,-999,-99.99,,,-99.99,,2013-05-22 16:53:00,
2013-05-22 12:02:00,70.0,-99.9,29.62,SSE,163,2.0,-999.0,-999,-99.99,,,-99.99,,2013-05-22 17:02:00,
2013-05-22 12:12:00,71.0,-99.9,29.62,SW,221,2.0,-999.0,-999,-99.99,,,-99.99,,2013-05-22 17:12:00,
2013-05-22 12:23:00,71.0,-99.9,29.62,SW,221,2.0,-999.0,-999,-99.99,,,-99.99,,2013-05-22 17:23:00,
2013-05-22 12:33:00,70.0,-99.9,29.62,WSW,245,1.0,-999.0,-999,-99.99,,,-99.99,,2013-05-22 17:33:00,
2013-05-22 12:42:00,70.0,-99.9,29.62,WSW,245,1.0,-999.0,-999,-99.99,,,-99.99,,2013-05-22 17:42:00,
2013-05-22 12:54:00,72.0,-99.9,29.62,SW,224,5.0,-999.0,-999,-99.99,,,-99.99,,2013-05-22 17:54:00,
2013-05-22 13:02:00,74.0,-99.9,29.62,WSW,240,8.0,-999.0,-999,-99.99,,,-99.99,,2013-05-22 18:02:00,
2013-05-22 13:14:00,73.0,-99.9,29.61,South,169,0.0,-999.0,-999,-99.99,,,-99.99,,2013-05-22 18:14:00,
2013-05-22 13:22:00,73.0,-99.9,29.61,South,169,0.0,-999.0,-999,-99.99,,,-99.99,,2013-05-22 18:22:00,
2013-05-22 13:34:00,73.0,-99.9,29.61,WSW,242,1.0,-999.0,-999,-99.99,,,-99.99,,2013-05-22 18:34:00,
2013-05-22 13:42:00,73.0,-99.9,29.61,WSW,242,1.0,-999.0,-999,-99.99,,,-99.99,,2013-05-22 18:42:00,
2013-05-22 13:52:00,67.0,-99.9,29.62,WNW,292,0.0,-999.0,-999,-99.99,,,-99.99,,2013-05-22 18:52:00,
2013-05-22 14:02:00,68.0,-99.9,29.62,WNW,292,0.0,-999.0,-999,-99.99,,,-99.99,,2013-05-22 19:02:00,
2013-05-22 14:11:00,65.0,-99.9,29.64,NW,309,1.0,-999.0,-999,-99.99,,,-99.99,,2013-05-22 19:11:00,
2013-05-22 14:22:00,65.0,-99.9,29.64,NW,309,1.0,-999.0,-999,-99.99,,,-99.99,,2013-05-22 19:22:00,
2013-05-22 14:32:00,64.0,-99.9,29.64,WNW,294,1.0,-999.0,-999,-99.99,,,-99.99,,2013-05-22 19:32:00,
2013-05-22 14:42:00,64.0,-99.9,29.65,WNW,303,0.0,-999.0,-999,-99.99,,,-99.99,,2013-05-22 19:42:00,
2013-05-22 14:52:00,64.0,-99.9,29.65,WNW,303,0.0,-999.0,-999,-99.99,,,-99.99,,2013-05-22 19:52:00,
2013-05-22 15:02:00,63.0,-99.9,29.65,WNW,302,0.0,-999.0,-999,-99.99,,,-99.99,,2013-05-22 20:02:00,
2013-05-22 15:11:00,66.0,-99.9,29.65,SW,231,1.0,-999.0,-999,-99.99,,,-99.99,,2013-05-22 20:11:00,
2013-05-22 15:22:00,66.0,-99.9,29.65,SW,231,1.0,-999.0,-999,-99.99,,,-99.99,,2013-05-22 20:22:00,
2013-05-22 15:32:00,67.0,-99.9,29.65,WSW,245,0.0,-999.0,-999,-99.99,,,-99.99,,2013-05-22 20:32:00,
2013-05-22 15:42:00,67.0,-99.9,29.65,SW,233,1.0,-999.0,-999,-99.99,,,-99.99,,2013-05-22 20:42:00,
2013-05-22 15:52:00,67.0,-99.9,29.65,SW,233,1.0,-999.0,-999,-99.99,,,-99.99,,2013-05-22 20:52:00,
2013-05-22 16:01:00,67.0,-99.9,29.64,SW,234,1.0,-999.0,-999,-99.99,,,-99.99,,2013-05-22 21:01:00,
2013-05-22 16:11:00,67.0,-99.9,29.64,SW,233,0.0,-999.0,-999,-99.99,,,-99.99,,2013-05-22 21:11:00,
2013-05-22 16:22:00,67.0,-99.9,29.64,SW,233,0.0,-999.0,-999,-99.99,,,-99.99,,2013-05-22 21:22:00,
2013-05-22 16:33:00,67.0,-99.9,29.64,SW,234,0.0,-999.0,-999,-99.99,,,-99.99,,2013-05-22 21:33:00,
2013-05-22 16:42:00,67.0,-99.9,29.64,SW,234,0.0,-999.0,-999,-99.99,,,-99.99,,2013-05-22 21:42:00,
2013-05-22 16:53:00,69.0,-99.9,29.64,WNW,288,2.0,-999.0,-999,-99.99,,,-99.99,,2013-05-22 21:53:00,
2013-05-22 17:03:00,70.0,-99.9,29.64,WNW,286,0.0,-999.0,-999,-99.99,,,-99.99,,2013-05-22 22:03:00,
2013-05-22 17:13:00,68.0,-99.9,29.64,WNW,286,0.0,-999.0,-999,-99.99,,,-99.99,,2013-05-22 22:13:00,
2013-05-22 17:22:00,68.0,-99.9,29.64,WNW,286,0.0,-999.0,-999,-99.99,,,-99.99,,2013-05-22 22:22:00,
2013-05-22 17:33:00,68.0,-99.9,29.64,WNW,286,0.0,-999.0,-999,-99.99,,,-99.99,,2013-05-22 22:33:00,
2013-05-22 17:42:00,69.0,-99.9,29.63,West,263,0.0,-999.0,-999,-99.99,,,-99.99,,2013-05-22 22:42:00,
2013-05-22 17:52:00,69.0,-99.9,29.63,West,263,0.0,-999.0,-999,-99.99,,,-99.99,,2013-05-22 22:52:00,
2013-05-22 18:02:00,69.0,-99.9,29.63,West,263,0.0,-999.0,-999,-99.99,,,-99.99,,2013-05-22 23:02:00,
2013-05-22 18:13:00,68.0,-99.9,29.63,West,263,0.0,-999.0,-999,-99.99,,,-99.99,,2013-05-22 23:13:00,
2013-05-22 18:22:00,68.0,-99.9,29.63,West,263,0.0,-999.0,-999,-99.99,,,-99.99,,2013-05-22 23:22:00,
2013-05-22 18:32:00,68.0,-99.9,29.63,West,263,1.0,-999.0,-999,-99.99,,,-99.99,,2013-05-22 23:32:00,
2013-05-22 18:42:00,68.0,-99.9,29.64,West,263,0.0,-999.0,-999,-99.99,,,-99.99,,2013-05-22 23:42:00,
2013-05-22 18:53:00,68.0,-99.9,29.64,West,263,0.0,-999.0,-999,-99.99,,,-99.99,,2013-05-22 23:53:00,
2013-05-22 19:02:00,68.0,-99.9,29.64,West,263,0.0,-999.0,-999,-99.99,,,-99.99,,2013-05-23 00:02:00,
2013-05-22 19:11:00,67.0,-99.9,29.64,WSW,244,1.0,-999.0,-999,-99.99,,,-99.99,,2013-05-23 00:11:00,
2013-05-22 19:22:00,67.0,-99.9,29.64,WSW,244,1.0,-999.0,-999,-99.99,,,-99.99,,2013-05-23 00:22:00,
2013-05-22 19:32:00,67.0,-99.9,29.65,WSW,244,0.0,-999.0,-999,-99.99,,,-99.99,,2013-05-23 00:32:00,
2013-05-22 19:42:00,67.0,-99.9,29.65,WSW,244,0.0,-999.0,-999,-99.99,,,-99.99,,2013-05-23 00:42:00,
2013-05-22 19:52:00,67.0,-99.9,29.65,WSW,242,0.0,-999.0,-999,-99.99,,,-99.99,,2013-05-23 00:52:00,
2013-05-22 20:02:00,67.0,-99.9,29.65,SW,236,0.0,-999.0,-999,-99.99,,,-99.99,,2013-05-23 01:02:00,
2013-05-22 20:11:00,66.0,-99.9,29.66,SW,236,0.0,-999.0,-999,-99.99,,,-99.99,,2013-05-23 01:11:00,
2013-05-22 20:22:00,66.0,-99.9,29.66,SW,236,0.0,-999.0,-999,-99.99,,,-99.99,,2013-05-23 01:22:00,
2013-05-22 20:32:00,66.0,-99.9,29.66,SW,236,0.0,-999.0,-999,-99.99,,,-99.99,,2013-05-23 01:32:00,
2013-05-22 20:42:00,66.0,-99.9,29.66,SW,236,0.0,-999.0,-999,-99.99,,,-99.99,,2013-05-23 01:42:00,
2013-05-22 20:52:00,66.0,-99.9,29.66,SW,236,0.0,-999.0,-999,-99.99,,,-99.99,,2013-05-23 01:52:00,
2013-05-22 21:02:00,66.0,-99.9,29.67,SW,236,0.0,-999.0,-999,-99.99,,,-99.99,,2013-05-23 02:02:00,
2013-05-22 21:11:00,65.0,-99.9,29.67,SW,236,1.0,-999.0,-999,-99.99,,,-99.99,,2013-05-23 02:11:00,
2013-05-22 21:22:00,65.0,-99.9,29.67,SW,236,1.0,-999.0,-999,-99.99,,,-99.99,,2013-05-23 02:22:00,
2013-05-22 21:32:00,65.0,-99.9,29.68,SW,236,0.0,-999.0,-999,-99.99,,,-99.99,,2013-05-23 02:32:00,
2013-05-22 21:42:00,65.0,-99.9,29.68,SW,236,0.0,-999.0,-999,-99.99,,,-99.99,,2013-05-23 02:42:00,
2013-05-22 21:52:00,65.0,-99.9,29.68,SW,236,0.0,-999.0,-999,-99.99,,,-99.99,,2013-05-23 02:52:00,
2013-05-22 22:02:00,64.0,-99.9,29.69,WSW,256,0.0,-999.0,-999,-99.99,,,-99.99,,2013-05-23 03:02:00,
2013-05-22 22:11:00,62.0,-99.9,29.70,West,280,0.0,-999.0,-999,-99.99,,,-99.99,,2013-05-23 03:11:00,
2013-05-22 22:22:00,62.0,-99.9,29.70,West,280,0.0,-999.0,-999,-99.99,,,-99.99,,2013-05-23 03:22:00,
2013-05-22 22:33:00,61.0,-99.9,29.70,West,280,1.0,-999.0,-999,-99.99,,,-99.99,,2013-05-23 03:33:00,
2013-05-22 22:43:00,61.0,-99.9,29.70,West,280,1.0,-999.0,-999,-99.99,,,-99.99,,2013-05-23 03:43:00,
2013-05-22 22:53:00,61.0,-99.9,29.70,West,280,0.0,-999.0,-999,-99.99,,,-99.99,,2013-05-23 03:53:00,
2013-05-22 23:03:00,60.0,-99.9,29.70,West,265,0.0,-999.0,-999,-99.99,,,-99.99,,2013-05-23 04:03:00,
2013-05-22 23:12:00,60.0,-99.9,29.70,West,265,0.0,-999.0,-999,-99.99,,,-99.99,,2013-05-23 04:12:00,
2013-05-22 23:23:00,60.0,-99.9,29.70,West,265,0.0,-999.0,-999,-99.99,,,-99.99,,2013-05-23 04:23:00,
2013-05-22 23:33:00,59.0,-99.9,29.70,West,265,0.0,-999.0,-999,-99.99,,,-99.99,,2013-05-23 04:33:00,
2013-05-22 23:43:00,59.0,-99.9,29.70,West,265,0.0,-999.0,-999,-99.99,,,-99.99,,2013-05-23 04:43:00,
2013-05-22 23:52:00,59.0,-99.9,29.70,West,265,0.0,-999.0,-999,-99.99,,,-99.99,,2013-05-23 04:52:00,